sensor_id;sensor_type;location;lat;lon;timestamp;temperature;humidity
8928;DHT22;4499;48.304;11.902;2023-07-29T00:00:15;16.60;99.90
8928;DHT22;4499;48.304;11.902;2023-07-29T00:02:45;16.60;99.90
8928;DHT22;4499;48.304;11.902;2023-07-29T00:05:13;16.60;99.90
8928;DHT22;4499;48.304;11.902;2023-07-29T00:07:41;16.60;99.90
8928;DHT22;4499;48.304;11.902;2023-07-29T00:10:10;16.60;99.90
8928;DHT22;4499;48.304;11.902;2023-07-29T00:12:38;16.50;99.90
8928;DHT22;4499;48.304;11.902;2023-07-29T00:15:07;16.50;99.90
8928;DHT22;4499;48.304;11.902;2023-07-29T00:17:35;16.50;99.90
8928;DHT22;4499;48.304;11.902;2023-07-29T00:20:06;16.50;99.90
8928;DHT22;4499;48.304;11.902;2023-07-29T00:22:35;16.50;99.90
8928;DHT22;4499;48.304;11.902;2023-07-29T00:25:03;16.50;99.90
8928;DHT22;4499;48.304;11.902;2023-07-29T00:27:31;16.50;99.90
8928;DHT22;4499;48.304;11.902;2023-07-29T00:29:59;16.40;99.90
8928;DHT22;4499;48.304;11.902;2023-07-29T00:32:29;16.40;99.90
8928;DHT22;4499;48.304;11.902;2023-07-29T00:34:57;16.40;99.90
8928;DHT22;4499;48.304;11.902;2023-07-29T00:37:30;16.30;99.90
8928;DHT22;4499;48.304;11.902;2023-07-29T00:39:58;16.30;99.90
8928;DHT22;4499;48.304;11.902;2023-07-29T00:42:26;16.30;99.90
8928;DHT22;4499;48.304;11.902;2023-07-29T00:44:54;16.20;99.90
8928;DHT22;4499;48.304;11.902;2023-07-29T00:47:22;16.20;99.90
8928;DHT22;4499;48.304;11.902;2023-07-29T00:49:51;16.20;99.90
8928;DHT22;4499;48.304;11.902;2023-07-29T00:52:19;16.20;99.90
8928;DHT22;4499;48.304;11.902;2023-07-29T00:54:49;16.20;99.90
8928;DHT22;4499;48.304;11.902;2023-07-29T00:57:18;16.20;99.90
8928;DHT22;4499;48.304;11.902;2023-07-29T00:59:47;16.10;99.90
8928;DHT22;4499;48.304;11.902;2023-07-29T01:02:15;16.10;99.90
8928;DHT22;4499;48.304;11.902;2023-07-29T01:04:43;16.10;99.90
8928;DHT22;4499;48.304;11.902;2023-07-29T01:07:16;16.10;99.90
8928;DHT22;4499;48.304;11.902;2023-07-29T01:09:55;16.00;99.90
8928;DHT22;4499;48.304;11.902;2023-07-29T01:12:28;16.00;99.90
8928;DHT22;4499;48.304;11.902;2023-07-29T01:15:07;15.90;99.90
8928;DHT22;4499;48.304;11.902;2023-07-29T01:17:43;15.90;99.90
8928;DHT22;4499;48.304;11.902;2023-07-29T01:20:14;15.90;99.90
8928;DHT22;4499;48.304;11.902;2023-07-29T01:22:42;15.80;99.90
8928;DHT22;4499;48.304;11.902;2023-07-29T01:25:12;15.80;99.90
8928;DHT22;4499;48.304;11.902;2023-07-29T01:27:41;15.70;99.90
8928;DHT22;4499;48.304;11.902;2023-07-29T01:30:10;15.70;99.90
8928;DHT22;4499;48.304;11.902;2023-07-29T01:32:46;15.60;99.90
8928;DHT22;4499;48.304;11.902;2023-07-29T01:35:21;15.60;99.90
8928;DHT22;4499;48.304;11.902;2023-07-29T01:37:53;15.60;99.90
8928;DHT22;4499;48.304;11.902;2023-07-29T01:40:25;15.50;99.90
8928;DHT22;4499;48.304;11.902;2023-07-29T01:42:54;15.40;99.90
8928;DHT22;4499;48.304;11.902;2023-07-29T01:45:23;15.40;99.90
8928;DHT22;4499;48.304;11.902;2023-07-29T01:47:52;15.30;99.90
8928;DHT22;4499;48.304;11.902;2023-07-29T01:50:20;15.30;99.90
8928;DHT22;4499;48.304;11.902;2023-07-29T01:52:49;15.20;99.90
8928;DHT22;4499;48.304;11.902;2023-07-29T01:55:17;15.20;99.90
8928;DHT22;4499;48.304;11.902;2023-07-29T01:57:46;15.20;99.90
8928;DHT22;4499;48.304;11.902;2023-07-29T02:00:15;15.10;99.90
8928;DHT22;4499;48.304;11.902;2023-07-29T02:02:43;15.10;99.90
8928;DHT22;4499;48.304;11.902;2023-07-29T02:05:11;15.10;99.90
8928;DHT22;4499;48.304;11.902;2023-07-29T02:07:39;15.10;99.90
8928;DHT22;4499;48.304;11.902;2023-07-29T02:10:08;15.00;99.90
8928;DHT22;4499;48.304;11.902;2023-07-29T02:12:36;15.00;99.90
8928;DHT22;4499;48.304;11.902;2023-07-29T02:15:07;15.00;99.90
8928;DHT22;4499;48.304;11.902;2023-07-29T02:17:36;15.00;99.90
8928;DHT22;4499;48.304;11.902;2023-07-29T02:20:05;15.00;99.90
8928;DHT22;4499;48.304;11.902;2023-07-29T02:22:34;15.00;99.90
8928;DHT22;4499;48.304;11.902;2023-07-29T02:25:02;14.90;99.90
8928;DHT22;4499;48.304;11.902;2023-07-29T02:27:31;14.90;99.90
8928;DHT22;4499;48.304;11.902;2023-07-29T02:30:00;14.90;99.90
8928;DHT22;4499;48.304;11.902;2023-07-29T02:32:29;14.90;99.90
8928;DHT22;4499;48.304;11.902;2023-07-29T02:34:57;14.90;99.90
8928;DHT22;4499;48.304;11.902;2023-07-29T02:37:26;14.90;99.90
8928;DHT22;4499;48.304;11.902;2023-07-29T02:39:54;14.80;99.90
8928;DHT22;4499;48.304;11.902;2023-07-29T02:42:22;14.80;99.90
8928;DHT22;4499;48.304;11.902;2023-07-29T02:44:50;14.80;99.90
8928;DHT22;4499;48.304;11.902;2023-07-29T02:47:18;14.80;99.90
8928;DHT22;4499;48.304;11.902;2023-07-29T02:49:47;14.80;99.90
8928;DHT22;4499;48.304;11.902;2023-07-29T02:52:16;14.70;99.90
8928;DHT22;4499;48.304;11.902;2023-07-29T02:54:44;14.70;99.90
8928;DHT22;4499;48.304;11.902;2023-07-29T02:57:13;14.70;99.90
8928;DHT22;4499;48.304;11.902;2023-07-29T02:59:41;14.60;99.90
8928;DHT22;4499;48.304;11.902;2023-07-29T03:02:09;14.60;99.90
8928;DHT22;4499;48.304;11.902;2023-07-29T03:04:38;14.50;99.90
8928;DHT22;4499;48.304;11.902;2023-07-29T03:07:07;14.50;99.90
8928;DHT22;4499;48.304;11.902;2023-07-29T03:09:36;14.50;99.90
8928;DHT22;4499;48.304;11.902;2023-07-29T03:12:04;14.50;99.90
8928;DHT22;4499;48.304;11.902;2023-07-29T03:14:32;14.50;99.90
8928;DHT22;4499;48.304;11.902;2023-07-29T03:17:02;14.50;99.90
8928;DHT22;4499;48.304;11.902;2023-07-29T03:19:31;14.50;99.90
8928;DHT22;4499;48.304;11.902;2023-07-29T03:21:59;14.50;99.90
8928;DHT22;4499;48.304;11.902;2023-07-29T03:24:28;14.50;99.90
8928;DHT22;4499;48.304;11.902;2023-07-29T03:26:56;14.50;99.90
8928;DHT22;4499;48.304;11.902;2023-07-29T03:29:24;14.50;99.90
8928;DHT22;4499;48.304;11.902;2023-07-29T03:31:53;14.40;99.90
8928;DHT22;4499;48.304;11.902;2023-07-29T03:34:21;14.40;99.90
8928;DHT22;4499;48.304;11.902;2023-07-29T03:36:50;14.40;99.90
8928;DHT22;4499;48.304;11.902;2023-07-29T03:39:18;14.40;99.90
8928;DHT22;4499;48.304;11.902;2023-07-29T03:41:48;14.40;99.90
8928;DHT22;4499;48.304;11.902;2023-07-29T03:44:16;14.40;99.90
8928;DHT22;4499;48.304;11.902;2023-07-29T03:46:45;14.40;99.90
8928;DHT22;4499;48.304;11.902;2023-07-29T03:49:13;14.40;99.90
8928;DHT22;4499;48.304;11.902;2023-07-29T03:51:41;14.50;99.90
8928;DHT22;4499;48.304;11.902;2023-07-29T03:54:09;14.50;99.90
8928;DHT22;4499;48.304;11.902;2023-07-29T03:56:37;14.60;99.90
8928;DHT22;4499;48.304;11.902;2023-07-29T03:59:07;14.60;99.90
8928;DHT22;4499;48.304;11.902;2023-07-29T04:01:35;14.60;99.90
8928;DHT22;4499;48.304;11.902;2023-07-29T04:04:03;14.70;99.90
8928;DHT22;4499;48.304;11.902;2023-07-29T04:06:31;14.80;99.90
8928;DHT22;4499;48.304;11.902;2023-07-29T04:09:00;14.80;99.90
8928;DHT22;4499;48.304;11.902;2023-07-29T04:11:29;14.90;99.90
8928;DHT22;4499;48.304;11.902;2023-07-29T04:13:57;15.00;99.90
8928;DHT22;4499;48.304;11.902;2023-07-29T04:16:26;15.00;99.90
8928;DHT22;4499;48.304;11.902;2023-07-29T04:18:55;15.10;99.90
8928;DHT22;4499;48.304;11.902;2023-07-29T04:21:23;15.10;99.90
8928;DHT22;4499;48.304;11.902;2023-07-29T04:23:51;15.10;99.90
8928;DHT22;4499;48.304;11.902;2023-07-29T04:26:19;15.20;99.90
8928;DHT22;4499;48.304;11.902;2023-07-29T04:28:48;15.10;99.90
8928;DHT22;4499;48.304;11.902;2023-07-29T04:31:16;15.20;99.90
8928;DHT22;4499;48.304;11.902;2023-07-29T04:33:46;15.20;99.90
8928;DHT22;4499;48.304;11.902;2023-07-29T04:36:14;15.30;99.90
8928;DHT22;4499;48.304;11.902;2023-07-29T04:38:42;15.30;99.90
8928;DHT22;4499;48.304;11.902;2023-07-29T04:41:10;15.40;99.90
8928;DHT22;4499;48.304;11.902;2023-07-29T04:43:38;15.40;99.90
8928;DHT22;4499;48.304;11.902;2023-07-29T04:46:06;15.40;99.90
8928;DHT22;4499;48.304;11.902;2023-07-29T04:48:35;15.50;99.90
8928;DHT22;4499;48.304;11.902;2023-07-29T04:51:05;15.50;99.90
8928;DHT22;4499;48.304;11.902;2023-07-29T04:53:33;15.50;99.90
8928;DHT22;4499;48.304;11.902;2023-07-29T04:56:03;15.50;99.90
8928;DHT22;4499;48.304;11.902;2023-07-29T04:58:31;15.50;99.90
8928;DHT22;4499;48.304;11.902;2023-07-29T05:01:01;15.60;99.90
8928;DHT22;4499;48.304;11.902;2023-07-29T05:03:30;15.60;99.90
8928;DHT22;4499;48.304;11.902;2023-07-29T05:05:58;15.60;99.90
8928;DHT22;4499;48.304;11.902;2023-07-29T05:08:28;15.60;99.90
8928;DHT22;4499;48.304;11.902;2023-07-29T05:10:56;15.60;99.90
8928;DHT22;4499;48.304;11.902;2023-07-29T05:13:24;15.60;99.90
8928;DHT22;4499;48.304;11.902;2023-07-29T05:15:52;15.70;99.90
8928;DHT22;4499;48.304;11.902;2023-07-29T05:18:20;15.70;99.90
8928;DHT22;4499;48.304;11.902;2023-07-29T05:20:49;15.80;99.90
8928;DHT22;4499;48.304;11.902;2023-07-29T05:23:17;15.90;99.90
8928;DHT22;4499;48.304;11.902;2023-07-29T05:25:46;16.00;99.90
8928;DHT22;4499;48.304;11.902;2023-07-29T05:28:14;16.20;99.90
8928;DHT22;4499;48.304;11.902;2023-07-29T05:30:43;16.40;99.90
8928;DHT22;4499;48.304;11.902;2023-07-29T05:33:11;16.50;99.90
8928;DHT22;4499;48.304;11.902;2023-07-29T05:35:40;16.70;99.90
8928;DHT22;4499;48.304;11.902;2023-07-29T05:38:08;16.90;99.90
8928;DHT22;4499;48.304;11.902;2023-07-29T05:40:36;17.10;99.90
8928;DHT22;4499;48.304;11.902;2023-07-29T05:43:06;17.20;99.90
8928;DHT22;4499;48.304;11.902;2023-07-29T05:45:34;17.40;99.90
8928;DHT22;4499;48.304;11.902;2023-07-29T05:48:02;17.50;99.90
8928;DHT22;4499;48.304;11.902;2023-07-29T05:50:30;17.70;99.90
8928;DHT22;4499;48.304;11.902;2023-07-29T05:52:58;18.00;99.90
8928;DHT22;4499;48.304;11.902;2023-07-29T05:55:26;18.20;99.90
8928;DHT22;4499;48.304;11.902;2023-07-29T05:57:54;18.40;99.90
8928;DHT22;4499;48.304;11.902;2023-07-29T06:00:24;18.30;99.90
8928;DHT22;4499;48.304;11.902;2023-07-29T06:02:52;18.30;99.90
8928;DHT22;4499;48.304;11.902;2023-07-29T06:05:20;18.20;99.90
8928;DHT22;4499;48.304;11.902;2023-07-29T06:07:49;18.20;99.90
8928;DHT22;4499;48.304;11.902;2023-07-29T06:10:17;18.30;99.90
8928;DHT22;4499;48.304;11.902;2023-07-29T06:12:46;18.40;99.90
8928;DHT22;4499;48.304;11.902;2023-07-29T06:15:14;18.40;99.90
8928;DHT22;4499;48.304;11.902;2023-07-29T06:17:43;18.40;99.90
8928;DHT22;4499;48.304;11.902;2023-07-29T06:20:12;18.50;99.90
8928;DHT22;4499;48.304;11.902;2023-07-29T06:22:40;18.60;99.90
8928;DHT22;4499;48.304;11.902;2023-07-29T06:25:09;18.70;99.90
8928;DHT22;4499;48.304;11.902;2023-07-29T06:27:37;18.80;99.90
8928;DHT22;4499;48.304;11.902;2023-07-29T06:30:06;18.80;99.90
8928;DHT22;4499;48.304;11.902;2023-07-29T06:32:34;18.80;99.90
8928;DHT22;4499;48.304;11.902;2023-07-29T06:35:05;18.80;99.90
8928;DHT22;4499;48.304;11.902;2023-07-29T06:37:33;18.70;99.90
8928;DHT22;4499;48.304;11.902;2023-07-29T06:40:01;18.80;99.90
8928;DHT22;4499;48.304;11.902;2023-07-29T06:42:30;18.80;99.90
8928;DHT22;4499;48.304;11.902;2023-07-29T06:44:58;18.90;99.90
8928;DHT22;4499;48.304;11.902;2023-07-29T06:47:26;18.90;99.90
8928;DHT22;4499;48.304;11.902;2023-07-29T06:49:54;19.10;99.90
8928;DHT22;4499;48.304;11.902;2023-07-29T06:52:23;19.40;99.90
8928;DHT22;4499;48.304;11.902;2023-07-29T06:54:52;19.70;99.90
8928;DHT22;4499;48.304;11.902;2023-07-29T06:57:20;20.10;99.90
8928;DHT22;4499;48.304;11.902;2023-07-29T06:59:48;20.60;99.90
8928;DHT22;4499;48.304;11.902;2023-07-29T07:02:16;20.80;99.90
8928;DHT22;4499;48.304;11.902;2023-07-29T07:04:44;21.00;99.90
8928;DHT22;4499;48.304;11.902;2023-07-29T07:07:12;20.90;99.90
8928;DHT22;4499;48.304;11.902;2023-07-29T07:09:42;20.90;99.90
8928;DHT22;4499;48.304;11.902;2023-07-29T07:12:10;21.00;99.90
8928;DHT22;4499;48.304;11.902;2023-07-29T07:14:38;21.10;99.90
8928;DHT22;4499;48.304;11.902;2023-07-29T07:17:06;21.20;99.90
8928;DHT22;4499;48.304;11.902;2023-07-29T07:19:39;21.00;99.90
8928;DHT22;4499;48.304;11.902;2023-07-29T07:22:07;20.60;99.90
8928;DHT22;4499;48.304;11.902;2023-07-29T07:24:35;20.40;99.90
8928;DHT22;4499;48.304;11.902;2023-07-29T07:27:05;20.00;99.90
8928;DHT22;4499;48.304;11.902;2023-07-29T07:29:33;19.50;99.90
8928;DHT22;4499;48.304;11.902;2023-07-29T07:32:02;19.00;99.90
8928;DHT22;4499;48.304;11.902;2023-07-29T07:34:31;18.60;99.90
8928;DHT22;4499;48.304;11.902;2023-07-29T07:37:00;18.30;99.90
8928;DHT22;4499;48.304;11.902;2023-07-29T07:39:28;18.10;99.90
8928;DHT22;4499;48.304;11.902;2023-07-29T07:41:56;17.90;99.90
8928;DHT22;4499;48.304;11.902;2023-07-29T07:44:26;17.70;99.90
8928;DHT22;4499;48.304;11.902;2023-07-29T07:46:54;17.60;99.90
8928;DHT22;4499;48.304;11.902;2023-07-29T07:49:22;17.60;99.90
8928;DHT22;4499;48.304;11.902;2023-07-29T07:51:50;17.60;99.90
8928;DHT22;4499;48.304;11.902;2023-07-29T07:54:18;17.60;99.90
8928;DHT22;4499;48.304;11.902;2023-07-29T07:56:47;17.70;99.90
8928;DHT22;4499;48.304;11.902;2023-07-29T07:59:15;17.80;99.90
8928;DHT22;4499;48.304;11.902;2023-07-29T08:01:45;17.80;99.90
8928;DHT22;4499;48.304;11.902;2023-07-29T08:04:13;17.90;99.90
8928;DHT22;4499;48.304;11.902;2023-07-29T08:06:42;17.80;99.90
8928;DHT22;4499;48.304;11.902;2023-07-29T08:09:10;17.90;99.90
8928;DHT22;4499;48.304;11.902;2023-07-29T08:11:38;17.90;99.90
8928;DHT22;4499;48.304;11.902;2023-07-29T08:14:06;18.00;99.90
8928;DHT22;4499;48.304;11.902;2023-07-29T08:16:34;18.00;99.90
8928;DHT22;4499;48.304;11.902;2023-07-29T08:19:04;18.10;99.90
8928;DHT22;4499;48.304;11.902;2023-07-29T08:21:33;18.20;99.90
8928;DHT22;4499;48.304;11.902;2023-07-29T08:24:02;18.40;99.90
8928;DHT22;4499;48.304;11.902;2023-07-29T08:26:30;18.50;99.90
8928;DHT22;4499;48.304;11.902;2023-07-29T08:28:59;18.60;99.90
8928;DHT22;4499;48.304;11.902;2023-07-29T08:31:27;18.80;99.90
8928;DHT22;4499;48.304;11.902;2023-07-29T08:33:55;19.00;99.90
8928;DHT22;4499;48.304;11.902;2023-07-29T08:36:25;19.00;99.90
8928;DHT22;4499;48.304;11.902;2023-07-29T08:38:53;19.10;99.90
8928;DHT22;4499;48.304;11.902;2023-07-29T08:41:25;19.40;99.90
8928;DHT22;4499;48.304;11.902;2023-07-29T08:44:01;19.70;99.90
8928;DHT22;4499;48.304;11.902;2023-07-29T08:46:30;20.00;99.90
8928;DHT22;4499;48.304;11.902;2023-07-29T08:48:59;20.20;99.90
8928;DHT22;4499;48.304;11.902;2023-07-29T08:51:31;20.20;99.90
8928;DHT22;4499;48.304;11.902;2023-07-29T08:54:00;20.40;99.90
8928;DHT22;4499;48.304;11.902;2023-07-29T08:56:29;20.50;99.90
8928;DHT22;4499;48.304;11.902;2023-07-29T08:58:58;20.50;99.90
8928;DHT22;4499;48.304;11.902;2023-07-29T09:01:28;20.50;99.90
8928;DHT22;4499;48.304;11.902;2023-07-29T09:03:57;20.80;99.90
8928;DHT22;4499;48.304;11.902;2023-07-29T09:06:26;20.90;99.90
8928;DHT22;4499;48.304;11.902;2023-07-29T09:08:56;20.80;99.90
8928;DHT22;4499;48.304;11.902;2023-07-29T09:11:24;20.70;99.90
8928;DHT22;4499;48.304;11.902;2023-07-29T09:13:53;20.90;99.90
8928;DHT22;4499;48.304;11.902;2023-07-29T09:16:21;21.30;99.90
8928;DHT22;4499;48.304;11.902;2023-07-29T09:18:50;21.70;99.90
8928;DHT22;4499;48.304;11.902;2023-07-29T09:21:22;21.60;99.90
8928;DHT22;4499;48.304;11.902;2023-07-29T09:23:51;21.90;99.90
8928;DHT22;4499;48.304;11.902;2023-07-29T09:26:24;21.80;99.90
8928;DHT22;4499;48.304;11.902;2023-07-29T09:28:53;22.10;99.90
8928;DHT22;4499;48.304;11.902;2023-07-29T09:31:24;22.50;99.90
8928;DHT22;4499;48.304;11.902;2023-07-29T09:33:56;23.00;99.90
8928;DHT22;4499;48.304;11.902;2023-07-29T09:36:25;23.70;99.90
8928;DHT22;4499;48.304;11.902;2023-07-29T09:38:53;24.90;99.90
8928;DHT22;4499;48.304;11.902;2023-07-29T09:41:24;25.80;99.90
8928;DHT22;4499;48.304;11.902;2023-07-29T09:43:57;26.70;99.90
8928;DHT22;4499;48.304;11.902;2023-07-29T09:46:32;27.50;99.90
8928;DHT22;4499;48.304;11.902;2023-07-29T09:49:04;28.50;99.90
8928;DHT22;4499;48.304;11.902;2023-07-29T09:51:37;29.20;99.90
8928;DHT22;4499;48.304;11.902;2023-07-29T09:54:05;29.40;99.90
8928;DHT22;4499;48.304;11.902;2023-07-29T09:56:39;29.90;98.70
8928;DHT22;4499;48.304;11.902;2023-07-29T09:59:10;30.50;97.00
8928;DHT22;4499;48.304;11.902;2023-07-29T10:01:39;30.40;96.50
8928;DHT22;4499;48.304;11.902;2023-07-29T10:04:09;30.20;94.00
8928;DHT22;4499;48.304;11.902;2023-07-29T10:06:39;29.90;93.80
8928;DHT22;4499;48.304;11.902;2023-07-29T10:09:11;29.00;98.80
8928;DHT22;4499;48.304;11.902;2023-07-29T10:11:41;28.40;97.40
8928;DHT22;4499;48.304;11.902;2023-07-29T10:14:11;27.80;97.30
8928;DHT22;4499;48.304;11.902;2023-07-29T10:16:40;27.60;99.00
8928;DHT22;4499;48.304;11.902;2023-07-29T10:19:09;27.60;99.80
8928;DHT22;4499;48.304;11.902;2023-07-29T10:21:41;28.20;99.90
8928;DHT22;4499;48.304;11.902;2023-07-29T10:24:15;28.80;96.90
8928;DHT22;4499;48.304;11.902;2023-07-29T10:26:46;28.90;94.50
8928;DHT22;4499;48.304;11.902;2023-07-29T10:29:14;28.80;94.60
8928;DHT22;4499;48.304;11.902;2023-07-29T10:31:44;29.00;96.50
8928;DHT22;4499;48.304;11.902;2023-07-29T10:34:13;29.30;95.20
8928;DHT22;4499;48.304;11.902;2023-07-29T10:36:42;29.70;94.80
8928;DHT22;4499;48.304;11.902;2023-07-29T10:39:10;30.30;92.70
8928;DHT22;4499;48.304;11.902;2023-07-29T10:41:57;30.90;91.30
8928;DHT22;4499;48.304;11.902;2023-07-29T10:44:48;31.30;89.40
8928;DHT22;4499;48.304;11.902;2023-07-29T10:47:19;31.30;87.20
8928;DHT22;4499;48.304;11.902;2023-07-29T10:49:50;31.20;92.10
8928;DHT22;4499;48.304;11.902;2023-07-29T10:52:29;30.80;90.30
8928;DHT22;4499;48.304;11.902;2023-07-29T10:54:57;31.00;91.00
8928;DHT22;4499;48.304;11.902;2023-07-29T10:57:32;31.30;85.90
8928;DHT22;4499;48.304;11.902;2023-07-29T11:00:02;31.50;88.60
8928;DHT22;4499;48.304;11.902;2023-07-29T11:02:32;31.60;84.40
8928;DHT22;4499;48.304;11.902;2023-07-29T11:05:05;31.30;79.90
8928;DHT22;4499;48.304;11.902;2023-07-29T11:07:43;31.50;80.30
8928;DHT22;4499;48.304;11.902;2023-07-29T11:10:12;30.70;82.00
8928;DHT22;4499;48.304;11.902;2023-07-29T11:12:44;29.70;86.10
8928;DHT22;4499;48.304;11.902;2023-07-29T11:15:22;28.10;88.60
8928;DHT22;4499;48.304;11.902;2023-07-29T11:17:52;26.00;94.10
8928;DHT22;4499;48.304;11.902;2023-07-29T11:20:21;24.90;98.40
8928;DHT22;4499;48.304;11.902;2023-07-29T11:22:50;23.40;99.90
8928;DHT22;4499;48.304;11.902;2023-07-29T11:25:18;22.50;99.90
8928;DHT22;4499;48.304;11.902;2023-07-29T11:27:48;21.40;99.90
8928;DHT22;4499;48.304;11.902;2023-07-29T11:30:18;20.90;99.90
8928;DHT22;4499;48.304;11.902;2023-07-29T11:32:47;20.30;99.90
8928;DHT22;4499;48.304;11.902;2023-07-29T11:35:16;19.70;99.90
8928;DHT22;4499;48.304;11.902;2023-07-29T11:37:46;19.30;99.90
8928;DHT22;4499;48.304;11.902;2023-07-29T11:40:15;19.30;99.90
8928;DHT22;4499;48.304;11.902;2023-07-29T11:42:44;19.20;99.90
8928;DHT22;4499;48.304;11.902;2023-07-29T11:45:14;19.30;99.90
8928;DHT22;4499;48.304;11.902;2023-07-29T11:47:44;19.70;99.90
8928;DHT22;4499;48.304;11.902;2023-07-29T11:50:13;20.30;99.90
8928;DHT22;4499;48.304;11.902;2023-07-29T11:52:43;20.80;99.90
8928;DHT22;4499;48.304;11.902;2023-07-29T11:55:12;21.50;99.90
8928;DHT22;4499;48.304;11.902;2023-07-29T11:57:42;22.30;99.90
8928;DHT22;4499;48.304;11.902;2023-07-29T12:00:11;22.60;99.90
8928;DHT22;4499;48.304;11.902;2023-07-29T12:02:43;22.80;99.90
8928;DHT22;4499;48.304;11.902;2023-07-29T12:05:13;22.90;99.90
8928;DHT22;4499;48.304;11.902;2023-07-29T12:07:43;23.10;99.90
8928;DHT22;4499;48.304;11.902;2023-07-29T12:10:12;23.30;99.90
8928;DHT22;4499;48.304;11.902;2023-07-29T12:12:50;23.10;99.90
8928;DHT22;4499;48.304;11.902;2023-07-29T12:15:25;23.30;99.90
8928;DHT22;4499;48.304;11.902;2023-07-29T12:17:56;23.60;99.90
8928;DHT22;4499;48.304;11.902;2023-07-29T12:20:26;23.90;99.90
8928;DHT22;4499;48.304;11.902;2023-07-29T12:22:56;23.90;99.90
8928;DHT22;4499;48.304;11.902;2023-07-29T12:25:25;24.10;99.90
8928;DHT22;4499;48.304;11.902;2023-07-29T12:27:54;24.20;99.90
8928;DHT22;4499;48.304;11.902;2023-07-29T12:30:22;24.20;99.90
8928;DHT22;4499;48.304;11.902;2023-07-29T12:32:51;24.30;99.90
8928;DHT22;4499;48.304;11.902;2023-07-29T12:35:21;24.20;99.90
8928;DHT22;4499;48.304;11.902;2023-07-29T12:37:58;24.20;99.90
8928;DHT22;4499;48.304;11.902;2023-07-29T12:40:27;24.40;99.90
8928;DHT22;4499;48.304;11.902;2023-07-29T12:42:56;24.50;99.90
8928;DHT22;4499;48.304;11.902;2023-07-29T12:45:24;24.90;99.90
8928;DHT22;4499;48.304;11.902;2023-07-29T12:47:55;25.00;99.90
8928;DHT22;4499;48.304;11.902;2023-07-29T12:50:25;24.80;99.90
8928;DHT22;4499;48.304;11.902;2023-07-29T12:52:53;24.60;99.90
8928;DHT22;4499;48.304;11.902;2023-07-29T12:55:22;24.70;99.90
8928;DHT22;4499;48.304;11.902;2023-07-29T12:57:51;24.70;99.90
8928;DHT22;4499;48.304;11.902;2023-07-29T13:00:19;24.60;99.90
8928;DHT22;4499;48.304;11.902;2023-07-29T13:02:47;24.20;99.90
8928;DHT22;4499;48.304;11.902;2023-07-29T13:05:16;24.00;99.90
8928;DHT22;4499;48.304;11.902;2023-07-29T13:07:45;23.70;99.90
8928;DHT22;4499;48.304;11.902;2023-07-29T13:10:13;23.40;99.90
8928;DHT22;4499;48.304;11.902;2023-07-29T13:12:41;23.20;99.90
8928;DHT22;4499;48.304;11.902;2023-07-29T13:15:10;23.00;99.90
8928;DHT22;4499;48.304;11.902;2023-07-29T13:17:39;22.80;99.90
8928;DHT22;4499;48.304;11.902;2023-07-29T13:20:08;22.80;99.90
8928;DHT22;4499;48.304;11.902;2023-07-29T13:22:36;22.80;99.90
8928;DHT22;4499;48.304;11.902;2023-07-29T13:25:07;22.80;99.90
8928;DHT22;4499;48.304;11.902;2023-07-29T13:27:35;23.10;99.90
8928;DHT22;4499;48.304;11.902;2023-07-29T13:30:04;23.40;99.90
8928;DHT22;4499;48.304;11.902;2023-07-29T13:32:32;23.40;99.90
8928;DHT22;4499;48.304;11.902;2023-07-29T13:35:00;23.40;99.90
8928;DHT22;4499;48.304;11.902;2023-07-29T13:37:28;23.40;99.90
8928;DHT22;4499;48.304;11.902;2023-07-29T13:39:56;23.30;99.90
8928;DHT22;4499;48.304;11.902;2023-07-29T13:42:26;23.50;99.90
8928;DHT22;4499;48.304;11.902;2023-07-29T13:44:54;23.50;99.90
8928;DHT22;4499;48.304;11.902;2023-07-29T13:47:22;23.60;99.90
8928;DHT22;4499;48.304;11.902;2023-07-29T13:49:50;23.70;99.90
8928;DHT22;4499;48.304;11.902;2023-07-29T13:52:19;23.60;99.90
8928;DHT22;4499;48.304;11.902;2023-07-29T13:54:47;23.50;99.90
8928;DHT22;4499;48.304;11.902;2023-07-29T13:57:15;23.20;99.90
8928;DHT22;4499;48.304;11.902;2023-07-29T13:59:45;23.10;99.90
8928;DHT22;4499;48.304;11.902;2023-07-29T14:02:14;23.00;99.90
8928;DHT22;4499;48.304;11.902;2023-07-29T14:04:42;22.90;99.90
8928;DHT22;4499;48.304;11.902;2023-07-29T14:07:11;22.80;99.90
8928;DHT22;4499;48.304;11.902;2023-07-29T14:09:39;22.90;99.90
8928;DHT22;4499;48.304;11.902;2023-07-29T14:12:09;22.90;99.90
8928;DHT22;4499;48.304;11.902;2023-07-29T14:14:39;22.80;99.90
8928;DHT22;4499;48.304;11.902;2023-07-29T14:17:08;22.90;99.90
8928;DHT22;4499;48.304;11.902;2023-07-29T14:19:36;22.80;99.90
8928;DHT22;4499;48.304;11.902;2023-07-29T14:22:05;23.00;99.90
8928;DHT22;4499;48.304;11.902;2023-07-29T14:24:33;22.90;99.90
8928;DHT22;4499;48.304;11.902;2023-07-29T14:27:01;22.90;99.90
8928;DHT22;4499;48.304;11.902;2023-07-29T14:29:30;22.90;99.90
8928;DHT22;4499;48.304;11.902;2023-07-29T14:31:58;22.90;99.90
8928;DHT22;4499;48.304;11.902;2023-07-29T14:34:28;22.80;99.90
8928;DHT22;4499;48.304;11.902;2023-07-29T14:36:56;22.70;99.90
8928;DHT22;4499;48.304;11.902;2023-07-29T14:39:25;22.60;99.90
8928;DHT22;4499;48.304;11.902;2023-07-29T14:41:53;22.50;99.90
8928;DHT22;4499;48.304;11.902;2023-07-29T14:44:21;22.50;99.90
8928;DHT22;4499;48.304;11.902;2023-07-29T14:46:49;22.40;99.90
8928;DHT22;4499;48.304;11.902;2023-07-29T14:49:17;22.40;99.90
8928;DHT22;4499;48.304;11.902;2023-07-29T14:51:47;22.40;99.90
8928;DHT22;4499;48.304;11.902;2023-07-29T14:54:15;22.40;99.90
8928;DHT22;4499;48.304;11.902;2023-07-29T14:56:43;22.30;99.90
8928;DHT22;4499;48.304;11.902;2023-07-29T14:59:11;22.10;99.90
8928;DHT22;4499;48.304;11.902;2023-07-29T15:01:39;22.10;99.90
8928;DHT22;4499;48.304;11.902;2023-07-29T15:04:07;22.00;99.90
8928;DHT22;4499;48.304;11.902;2023-07-29T15:06:35;22.00;99.90
8928;DHT22;4499;48.304;11.902;2023-07-29T15:09:07;21.90;99.90
8928;DHT22;4499;48.304;11.902;2023-07-29T15:11:36;21.70;99.90
8928;DHT22;4499;48.304;11.902;2023-07-29T15:14:04;21.60;99.90
8928;DHT22;4499;48.304;11.902;2023-07-29T15:16:32;21.40;99.90
8928;DHT22;4499;48.304;11.902;2023-07-29T15:19:03;21.30;99.90
8928;DHT22;4499;48.304;11.902;2023-07-29T15:21:31;21.10;99.90
8928;DHT22;4499;48.304;11.902;2023-07-29T15:24:01;21.00;99.90
8928;DHT22;4499;48.304;11.902;2023-07-29T15:26:30;20.80;99.90
8928;DHT22;4499;48.304;11.902;2023-07-29T15:28:59;20.60;99.90
8928;DHT22;4499;48.304;11.902;2023-07-29T15:31:28;20.40;99.90
8928;DHT22;4499;48.304;11.902;2023-07-29T15:33:56;20.30;99.90
8928;DHT22;4499;48.304;11.902;2023-07-29T15:36:24;20.10;99.90
8928;DHT22;4499;48.304;11.902;2023-07-29T15:38:52;20.00;99.90
8928;DHT22;4499;48.304;11.902;2023-07-29T15:41:21;19.90;99.90
8928;DHT22;4499;48.304;11.902;2023-07-29T15:43:50;19.90;99.90
8928;DHT22;4499;48.304;11.902;2023-07-29T15:46:18;19.90;99.90
8928;DHT22;4499;48.304;11.902;2023-07-29T15:48:47;19.80;99.90
8928;DHT22;4499;48.304;11.902;2023-07-29T15:51:15;19.80;99.90
8928;DHT22;4499;48.304;11.902;2023-07-29T15:53:43;19.80;99.90
8928;DHT22;4499;48.304;11.902;2023-07-29T15:56:11;19.80;99.90